Flight Track Log - Related Links

Times and Time Zones

All times are in EDT time to prevent confusion due to time zone crossing. See the ASA701 flight status page for this flight to view local times or setup timezone preferences in your user account.

Time Position Orientation Groundspeed Altitude Reporting Facility
EDT Latitude Longitude Course Direction KTS MPH feet Rate Location/Type
Tue 11:52:27 PM 33.9367 -118.4433 267° West 168 193 1,700  Level Los Angeles Center
Tue 11:53:29 PM 33.9333 -118.5189 267° West 220 253 4,100 2,489 Climbing Los Angeles Center
Tue 11:54:42 PM 33.9278 -118.6181 266° West 274 315 7,300 3,022 Climbing Los Angeles Center
Tue 11:55:44 PM 33.9156 -118.7261 262° West 283 326 10,900 3,122 Climbing Los Angeles Center
Tue 11:56:45 PM 33.9064 -118.8200 263° West 311 358 13,700 3,317 Climbing Los Angeles Center
Tue 11:57:47 PM 33.9403 -118.9331 290° West 334 384 17,700 3,512 Climbing Los Angeles Center
Tue 11:58:48 PM 34.0000 -119.0219 309° West 341 392 20,900 2,902 Climbing Los Angeles Center
Tue 11:59:49 PM 34.0622 -119.1133 309° West 354 407 23,600 2,585 Climbing Los Angeles Center
Wed 12:00:51 AM 34.1267 -119.2064 310° West 360 414 26,200 2,537 Climbing Los Angeles Center
Wed 12:01:52 AM 34.1917 -119.3011 310° West 365 420 28,800 2,195 Climbing Los Angeles Center
Wed 12:02:54 AM 34.2564 -119.3983 309° West 370 426 30,700 1,659 Climbing Los Angeles Center
Wed 12:03:55 AM 34.3233 -119.4992 309° West 382 440 32,200 1,707 Climbing Los Angeles Center
Wed 12:04:57 AM 34.3928 -119.6011 310° West 391 450 34,200 1,951 Climbing Los Angeles Center
Wed 12:05:58 AM 34.4739 -119.7211 309° West 384 442 36,200 1,525 Climbing Los Angeles Center
Wed 12:06:59 AM 34.5514 -119.8106 316° Northwest 387 445 37,300 885 Climbing Los Angeles Center
Wed 12:08:00 AM 34.6156 -119.8597 328° Northwest 403 464 38,000 1,024 Climbing Los Angeles Center
Wed 12:09:02 AM 34.7464 -119.9672 326° Northwest 406 467 39,400 927 Climbing Los Angeles Center
Wed 12:10:03 AM 34.8392 -120.0439 326° Northwest 405 466 39,900 293 Climbing Los Angeles Center
Wed 12:11:05 AM 34.9256 -120.1147 326° Northwest 406 467 40,000 49 Climbing Los Angeles Center
Wed 12:12:06 AM 35.0194 -120.1936 325° Northwest 412 474 40,000  Level Los Angeles Center
Wed 12:13:07 AM 35.1142 -120.2717 326° Northwest 414 476 40,000  Level Los Angeles Center
Wed 12:14:09 AM 35.2086 -120.3508 326° Northwest 415 478 40,000  Level Los Angeles Center
Wed 12:15:10 AM 35.3208 -120.4467 325° Northwest 413 475 40,000  Level Los Angeles Center
Wed 12:16:11 AM 35.4164 -120.5286 325° Northwest 421 484 40,000  Level Los Angeles Center
Wed 12:16:38 AM 35.4522 -120.5600 324° Northwest 419 482 40,000  Level Oakland Center
Wed 12:17:38 AM 35.5486 -120.6394 326° Northwest 416 479 40,000  Level Oakland Center
Wed 12:18:39 AM 35.6422 -120.7211 325° Northwest 411 473 40,000  Level Oakland Center
Wed 12:19:40 AM 35.7364 -120.8022 325° Northwest 413 475 40,000  Level Oakland Center
Wed 12:20:41 AM 35.8317 -120.8825 326° Northwest 414 476 40,000  Level Oakland Center
Wed 12:21:42 AM 35.9275 -120.9639 325° Northwest 417 480 40,000  Level Oakland Center
Wed 12:22:43 AM 36.0400 -121.0614 325° Northwest 413 475 40,000  Level Oakland Center
Wed 12:23:44 AM 36.1356 -121.1433 325° Northwest 417 480 40,000  Level Oakland Center
Wed 12:24:45 AM 36.2306 -121.2250 325° Northwest 416 479 40,000  Level Oakland Center
Wed 12:25:46 AM 36.3242 -121.3078 325° Northwest 415 478 40,000  Level Oakland Center
Wed 12:26:47 AM 36.4175 -121.3875 326° Northwest 411 473 40,000  Level Oakland Center
Wed 12:27:48 AM 36.5097 -121.4694 324° Northwest 409 471 40,000  Level Oakland Center
Wed 12:28:49 AM 36.6031 -121.5511 325° Northwest 409 471 40,000  Level Oakland Center
Wed 12:29:50 AM 36.6964 -121.6342 324° Northwest 412 474 40,000  Level Oakland Center
Wed 12:30:51 AM 36.7906 -121.7164 325° Northwest 414 476 40,000  Level Oakland Center
Wed 12:31:52 AM 36.8903 -121.8028 325° Northwest 414 476 40,000  Level Oakland Center
Wed 12:32:53 AM 36.9850 -121.8842 326° Northwest 414 476 40,000  Level Oakland Center
Wed 12:33:54 AM 37.0797 -121.9669 325° Northwest 414 476 40,000  Level Oakland Center
Wed 12:34:54 AM 37.1739 -122.0519 324° Northwest 418 481 40,000  Level Oakland Center
Wed 12:35:55 AM 37.2697 -122.1372 325° Northwest 421 484 40,000  Level Oakland Center
Wed 12:36:56 AM 37.3656 -122.2217 325° Northwest 421 484 40,000  Level Oakland Center
Wed 12:37:57 AM 37.4622 -122.3089 324° Northwest 426 490 40,000  Level Oakland Center
Wed 12:38:58 AM 37.5578 -122.3944 325° Northwest 423 487 40,000  Level Oakland Center
Wed 12:39:59 AM 37.6544 -122.4814 325° Northwest 425 489 40,000  Level Oakland Center
Wed 12:40:59 AM 37.7714 -122.5872 324° Northwest 427 491 40,000  Level Oakland Center
Wed 12:42:00 AM 37.8617 -122.6694 324° Northwest 428 493 40,000  Level Oakland Center
Wed 12:43:01 AM 37.9506 -122.7500 324° Northwest 427 491 40,000  Level Oakland Center
Wed 12:44:02 AM 38.0486 -122.8394 324° Northwest 430 495 40,000  Level Oakland Center
Wed 12:45:03 AM 38.1631 -122.8703 348° North 424 488 40,000  Level Oakland Center
Wed 12:46:04 AM 38.2833 -122.8703 360° North 429 494 40,000  Level Oakland Center
Wed 12:47:04 AM 38.4033 -122.8714 360° North 430 495 40,000  Level Oakland Center
Wed 12:48:05 AM 38.5478 -122.8725 360° North 430 495 40,000  Level Oakland Center
Wed 12:49:06 AM 38.6672 -122.8736 360° North 429 494 40,000  Level Oakland Center
Wed 12:50:07 AM 38.7886 -122.8739 360° North 435 501 40,000  Level Oakland Center
Wed 12:51:08 AM 38.9083 -122.8764 359° North 432 497 40,000  Level Oakland Center
Wed 12:52:09 AM 39.0294 -122.8758 360° North 432 497 40,000  Level Oakland Center
Wed 12:53:09 AM 39.1492 -122.8775 359° North 431 496 40,000  Level Oakland Center
Wed 12:54:10 AM 39.2700 -122.8803 359° North 434 499 40,000  Level Oakland Center
Wed 12:55:11 AM 39.3917 -122.8811 360° North 435 501 40,000  Level Oakland Center
Wed 12:56:12 AM 39.5047 -122.8833 359° North 429 494 40,000  Level Oakland Center
Wed 12:57:13 AM 39.6250 -122.8844 360° North 430 495 40,000  Level Oakland Center
Wed 12:58:14 AM 39.7453 -122.8861 359° North 429 494 40,000  Level Oakland Center
Wed 12:59:14 AM 39.8653 -122.8869 360° North 430 495 40,000  Level Oakland Center
Wed 01:00:15 AM 39.9867 -122.8900 359° North 432 497 40,000  Level Oakland Center
Wed 01:01:16 AM 40.1319 -122.8903 360° North 433 498 40,000  Level Oakland Center
Wed 01:02:17 AM 40.2528 -122.8908 360° North 432 497 40,000  Level Oakland Center
Wed 01:03:18 AM 40.3742 -122.8919 360° North 432 497 40,000  Level Oakland Center
Wed 01:04:18 AM 40.4964 -122.8942 359° North 435 501 40,000  Level Oakland Center
Wed 01:05:19 AM 40.6161 -122.8953 360° North 431 496 40,000  Level Oakland Center
Wed 01:06:20 AM 40.7386 -122.8961 360° North 438 504 40,000  Level Oakland Center
Wed 01:07:21 AM 40.8603 -122.8972 360° North 438 504 40,000  Level Oakland Center
Wed 01:08:22 AM 40.9831 -122.8956 North 440 506 40,000  Level Oakland Center
Wed 01:09:22 AM 41.1028 -122.8992 359° North 431 496 40,000  Level Oakland Center
Wed 01:10:23 AM 41.2222 -122.8989 360° North 429 494 40,000  Level Oakland Center
Wed 01:11:24 AM 41.3425 -122.8986 360° North 432 497 40,000  Level Oakland Center
Wed 01:12:24 AM 41.4497 -122.9011 359° North 428 493 40,000  Level Oakland Center
Wed 01:13:25 AM 41.5686 -122.9014 360° North 424 488 40,000  Level Oakland Center
Wed 01:14:26 AM 41.6864 -122.9025 360° North 422 486 40,000  Level Oakland Center
Wed 01:15:26 AM 41.8036 -122.9042 359° North 420 483 40,000  Level Oakland Center
Wed 01:16:27 AM 41.9206 -122.9053 360° North 418 481 40,000  Level Oakland Center
Wed 01:17:28 AM 42.0394 -122.9061 360° North 423 487 40,000  Level Oakland Center
Wed 01:18:28 AM 42.1578 -122.9086 359° North 423 487 40,000  Level Oakland Center
Wed 01:19:29 AM 42.2994 -122.9111 359° North 422 486 40,000  Level Oakland Center
Wed 01:20:38 AM 42.4186 -122.9100 360° North 423 487 40,000  Level Seattle Center
Wed 01:21:38 AM 42.5375 -122.9067 North 425 489 40,000  Level Seattle Center
Wed 01:22:39 AM 42.6550 -122.8950 North 423 487 40,000  Level Seattle Center
Wed 01:23:39 AM 42.7839 -122.8822 North 428 493 40,000  Level Seattle Center
Wed 01:24:39 AM 42.9008 -122.8736 North 419 482 40,000  Level Seattle Center
Wed 01:25:40 AM 43.0167 -122.8622 North 417 480 40,000  Level Seattle Center
Wed 01:26:40 AM 43.1342 -122.8525 North 421 484 40,000  Level Seattle Center
Wed 01:27:41 AM 43.2531 -122.8397 North 427 491 40,000  Level Seattle Center
Wed 01:28:41 AM 43.3722 -122.8283 North 428 493 40,000  Level Seattle Center
Wed 01:29:42 AM 43.4919 -122.8161 North 429 494 40,000  Level Seattle Center
Wed 01:30:42 AM 43.6106 -122.8050 North 427 491 40,000  Level Seattle Center
Wed 01:31:43 AM 43.7300 -122.7939 North 429 494 40,000  Level Seattle Center
Wed 01:32:43 AM 43.8464 -122.7817 North 423 487 40,000  Level Seattle Center
Wed 01:33:43 AM 43.9603 -122.7697 North 414 476 40,000  Level Seattle Center
Wed 01:34:44 AM 44.0753 -122.7597 North 416 479 40,000  Level Seattle Center
Wed 01:35:44 AM 44.2125 -122.7464 North 415 478 40,000  Level Seattle Center
Wed 01:36:45 AM 44.3267 -122.7347 North 414 476 40,000  Level Seattle Center
Wed 01:37:45 AM 44.4236 -122.7253 North 414 476 40,000  Level Seattle Center
Wed 01:38:46 AM 44.5378 -122.7139 North 413 475 40,000  Level Seattle Center
Wed 01:39:46 AM 44.6506 -122.7025 North 410 472 40,000  Level Seattle Center
Wed 01:40:46 AM 44.7656 -122.6925 North 415 478 40,000  Level Seattle Center
Wed 01:41:47 AM 44.9033 -122.6781 North 417 480 40,000  Level Seattle Center
Wed 01:42:47 AM 45.0181 -122.6683 North 416 479 40,000  Level Seattle Center
Wed 01:43:47 AM 45.1322 -122.6561 North 415 478 40,000  Level Seattle Center
Wed 01:44:48 AM 45.2469 -122.6431 North 415 478 40,000  Level Seattle Center
Wed 01:45:48 AM 45.3606 -122.6297 North 413 475 40,000  Level Seattle Center
Wed 01:46:48 AM 45.4753 -122.6189 North 415 478 40,000  Level Seattle Center
Wed 01:47:49 AM 45.5894 -122.6078 North 414 476 40,000  Level Seattle Center
Wed 01:48:49 AM 45.7047 -122.5950 North 415 478 40,000  Level Seattle Center
Wed 01:49:49 AM 45.8194 -122.5797 North 417 480 40,000  Level Seattle Center
Wed 01:50:50 AM 45.9342 -122.5600 North 416 479 40,000  Level Seattle Center
Wed 01:51:50 AM 46.0506 -122.5442 North 420 483 40,000  Level Seattle Center
Wed 01:52:50 AM 46.1656 -122.5247 North 418 481 40,000  Level Seattle Center
Wed 01:53:51 AM 46.2881 -122.5217 North 409 471 40,000  Level Seattle Center
Wed 01:54:51 AM 46.4036 -122.5244 359° North 415 478 40,000  Level Seattle Center
Wed 01:55:51 AM 46.5183 -122.5250 360° North 417 480 40,000  Level Seattle Center
Wed 01:56:52 AM 46.6317 -122.5228 North 413 475 40,000  Level Seattle Center
Wed 01:57:52 AM 46.7450 -122.5225 360° North 411 473 40,000  Level Seattle Center
Wed 01:58:52 AM 46.8586 -122.5208 North 410 472 40,000  Level Seattle Center
Wed 01:59:53 AM 46.9708 -122.5206 360° North 409 471 40,000  Level Seattle Center
Wed 02:00:53 AM 47.0836 -122.5194 360° North 408 470 40,000  Level Seattle Center
Wed 02:01:53 AM 47.1961 -122.5192 360° North 408 470 40,000  Level Seattle Center
Wed 02:02:54 AM 47.3103 -122.5181 360° North 412 474 40,000  Level Seattle Center
Wed 02:03:54 AM 47.4239 -122.5167 360° North 412 474 40,000 -1,050 Level Seattle Center
Wed 02:04:54 AM 47.5353 -122.5175 360° North 405 466 37,900 -2,331 Descending Seattle Center
Wed 02:05:55 AM 47.6453 -122.5158 North 403 464 35,300 -2,876 Descending Seattle Center
Wed 02:06:55 AM 47.7683 -122.5153 360° North 408 470 32,100 -2,850 Descending Seattle Center
Wed 02:07:55 AM 47.8825 -122.5133 North 413 475 29,600 -2,400 Descending Seattle Center
Wed 02:08:55 AM 47.9939 -122.5122 360° North 404 465 27,300 -2,281 Descending Seattle Center
Wed 02:09:56 AM 48.1031 -122.5125 360° North 398 458 25,000 -2,231 Descending Seattle Center
Wed 02:10:56 AM 48.2072 -122.5111 North 380 437 22,800 -2,200 Descending Seattle Center
Wed 02:11:56 AM 48.3103 -122.5108 360° North 375 432 20,600 -2,083 Descending Seattle Center
Wed 02:12:57 AM 48.4092 -122.5097 360° North 364 419 18,600 -2,281 Descending Seattle Center
Wed 02:13:57 AM 48.5244 -122.5106 360° North 352 405 16,000 -2,400 Descending Seattle Center
Wed 02:14:57 AM 48.6208 -122.5094 360° North 349 402 13,800 -2,200 Descending Seattle Center
Wed 02:15:27 AM 48.6500 -122.5167 351° North 340 391 12,700 -1,800 Descending Vancouver Center
Wed 02:16:27 AM 48.7167 -122.6167 315° West 330 380 11,100 -1,450 Descending Vancouver Center
Wed 02:17:27 AM 48.7500 -122.7167 297° West 300 345 9,800 -1,350 Descending Vancouver Center
Wed 02:18:27 AM 48.8000 -122.8167 307° West 290 334 8,400 -900 Descending Vancouver Center
Wed 02:19:27 AM 48.8333 -122.9167 297° West 280 322 8,000 -800 Descending Vancouver Center
Wed 02:20:27 AM 48.8833 -123.0167 307° West 270 311 6,800 -1,200 Descending Vancouver Center
Wed 02:21:27 AM 48.9333 -123.1167 307° West 270 311 5,600 -1,100 Descending Vancouver Center
Wed 02:22:27 AM 48.9667 -123.1833 307° West 270 311 4,600 -1,000 Descending Vancouver Center
Wed 02:23:27 AM 49.0000 -123.2833 297° West 270 311 3,600 -950 Descending Vancouver Center
Wed 02:24:27 AM 49.0667 -123.3333 334° Northwest 260 299 2,700 -750 Descending Vancouver Center
Wed 02:25:27 AM 49.1333 -123.3667 342° North 250 288 2,100 -500 Descending Vancouver Center
Wed 02:26:27 AM 49.1833 -123.3333 24° Northeast 200 230 1,700 -600 Descending Vancouver Center
Wed 02:27:27 AM 49.1833 -123.2667 90° East 150 173 900 -700 Descending Vancouver Center
Wed 02:28:27 AM 49.1667 -123.2167 117° Southeast 120 138 300 -600 Descending Vancouver Center

Login

Don't have an account? Register now (free) for customized features, flight alerts, and more!